Madison, WI

11:29 PM CST on January 25, 2015 (GMT -0600)
Atmospheric, Oceanic and Space Sciences Building | Change Station
CLOSE
Current Station
Personal Weather Station
Location: Madison, WI
Elevation: 896 ft
Nearby Weather Stations

Elev 896 ft 43.07 °N, 89.41 °W | Updated 4 minutes ago

Partly Cloudy
Partly Cloudy
16.0 °F
Feels Like 7 °F
N
6.1
Wind Variable Wind from NNE

Today
High -- | Low -- °F
--% Chance of Precip.
Yesterday
High -- | Low -- °F
Precip. -- in
7:19 AM 5:00 PM
Waxing Crescent, 39% visible
Pressure 30.08 in
Visibility 10.0 miles
Clouds Few 11000 ft
Mostly Cloudy 23000 ft
Windchill 7 °F
Dew Point 10 °F
Humidity 78%
Rainfall 0.00 in
Snow Depth Not available.
UV 0 out of 12
Pollen .10 out of 12
Air Quality Not available.
Flu Activity Not available.
METAR KMSN 260453Z 34004KT 10SM FEW110 BKN230 M09/M12 A3003 RMK AO2 SLP185 LAST AUGMENTED OBS OF THE DAY UNTIL 1145Z T10891122

More Conditions Fewer Conditions

Pressure 30.08 in
Visibility 10.0 miles
Clouds Few 11000 ft
Mostly Cloudy 23000 ft
Windchill 7 °F
Dew Point 10 °F
Humidity 78%
Rainfall 0.00 in
Snow Depth Not available.
UV 0 out of 12
Pollen .10 out of 12
Air Quality Not available.
Flu Activity Not available.
METAR KMSN 260453Z 34004KT 10SM FEW110 BKN230 M09/M12 A3003 RMK AO2 SLP185 LAST AUGMENTED OBS OF THE DAY UNTIL 1145Z T10891122

More Conditions Fewer Conditions

10-Day Weather Forecast

Almanac

Astronomy

Jan. 25, 2015 Rise Set
Actual Time
Civil Twilight
Nautical Twilight
Astronomical Twilight
Moon
Length of Visible Light
Length of Day
Tomorrow will be .
, % of the Moon is Illuminated

Today's Extremes

State Highs State Lows

Community

WunderPhotos

Upload Photos

1,790,152 photos uploaded!

WunderBlogs® & News

Nearby

Air Quality

  Air Quality AQ Index Pollutant
Not available.

Snow Depth

Station Depth Elevation

Earthquake Activity

City Distance Mag. Time & Date
Minimum magnitude displayed is 2.5.

Coastal Water Temperatures

Place Temperature

Nearby Weather Stations